createdAt,value
2024-01-20T00:00:17.778Z,57.27
2024-01-20T00:02:45.565Z,57.43
2024-01-20T00:05:14.116Z,55.92
2024-01-20T00:07:44.200Z,58.11
2024-01-20T00:10:13.587Z,56.78
2024-01-20T00:12:46.532Z,56.26
2024-01-20T00:15:14.565Z,57.00
2024-01-20T00:17:43.086Z,55.98
2024-01-20T00:20:11.915Z,57.17
2024-01-20T00:22:39.964Z,58.23
2024-01-20T00:25:09.964Z,58.42
2024-01-20T00:27:39.007Z,56.93
2024-01-20T00:30:09.137Z,56.98
2024-01-20T00:32:37.366Z,55.42
2024-01-20T00:35:09.548Z,55.66
2024-01-20T00:37:39.717Z,56.63
2024-01-20T00:40:09.154Z,59.88
2024-01-20T00:42:36.706Z,58.38
2024-01-20T00:45:04.452Z,56.91
2024-01-20T00:47:35.012Z,57.04
2024-01-20T00:50:06.165Z,55.14
2024-01-20T00:52:33.622Z,54.25
2024-01-20T00:55:01.049Z,54.96
2024-01-20T00:57:28.508Z,55.28
2024-01-20T00:59:57.444Z,55.62
2024-01-20T01:02:26.498Z,54.94
2024-01-20T01:04:55.418Z,58.92
2024-01-20T01:07:22.927Z,57.35
2024-01-20T01:09:50.574Z,56.53
2024-01-20T01:12:18.200Z,55.66
2024-01-20T01:14:45.670Z,56.75
2024-01-20T01:17:13.412Z,58.46
2024-01-20T01:19:40.898Z,59.86
2024-01-20T01:22:09.779Z,59.65
2024-01-20T01:24:38.733Z,57.88
2024-01-20T01:27:07.360Z,57.66
2024-01-20T01:29:34.825Z,59.96
2024-01-20T01:32:02.617Z,60.22
2024-01-20T01:34:30.071Z,57.47
2024-01-20T01:36:57.634Z,57.90
2024-01-20T01:39:26.456Z,57.69
2024-01-20T01:41:53.894Z,57.71
2024-01-20T01:44:21.351Z,59.91
2024-01-20T01:46:48.917Z,59.03
2024-01-20T01:49:16.553Z,59.27
2024-01-20T01:51:44.703Z,59.04
2024-01-20T01:54:13.732Z,57.29
2024-01-20T01:56:45.659Z,55.85
2024-01-20T01:59:13.396Z,55.67
2024-01-20T02:01:40.882Z,59.05
2024-01-20T02:04:08.717Z,56.12
2024-01-20T02:06:36.460Z,55.89
2024-01-20T02:09:05.039Z,55.57
2024-01-20T02:11:33.409Z,57.88
2024-01-20T02:14:02.792Z,56.75
2024-01-20T02:16:30.241Z,56.66
2024-01-20T02:19:03.527Z,55.74
2024-01-20T02:21:31.202Z,57.21
2024-01-20T02:24:01.500Z,59.11
2024-01-20T02:26:30.053Z,62.34
2024-01-20T02:28:57.541Z,58.69
2024-01-20T02:31:24.985Z,57.73
2024-01-20T02:33:52.636Z,58.11
2024-01-20T02:36:20.271Z,58.75
2024-01-20T02:38:47.728Z,57.80
2024-01-20T02:41:16.497Z,58.43
2024-01-20T02:43:43.952Z,57.93
2024-01-20T02:46:11.415Z,57.90
2024-01-20T02:48:38.984Z,60.48
2024-01-20T02:51:06.643Z,57.38
2024-01-20T02:53:34.069Z,58.58
2024-01-20T02:56:01.506Z,58.38
2024-01-20T02:58:30.348Z,57.89
2024-01-20T03:00:59.699Z,60.02
2024-01-20T03:03:27.246Z,57.73
2024-01-20T03:05:54.971Z,59.64
2024-01-20T03:08:22.454Z,60.00
2024-01-20T03:10:49.999Z,60.82
2024-01-20T03:13:17.579Z,62.06
2024-01-20T03:15:46.410Z,60.61
2024-01-20T03:18:14.035Z,58.39
2024-01-20T03:20:41.512Z,57.22
2024-01-20T03:23:08.981Z,57.66
2024-01-20T03:25:36.525Z,54.94
2024-01-20T03:28:04.248Z,57.94
2024-01-20T03:30:31.808Z,58.99
2024-01-20T03:33:00.763Z,58.52
2024-01-20T03:35:28.388Z,57.86
2024-01-20T03:37:55.973Z,56.82
2024-01-20T03:40:23.452Z,54.85
2024-01-20T03:42:50.893Z,56.36
2024-01-20T03:45:18.448Z,59.78
2024-01-20T03:47:45.925Z,57.94
2024-01-20T03:50:14.861Z,58.61
2024-01-20T03:52:46.278Z,57.34
2024-01-20T03:55:14.413Z,56.28
2024-01-20T03:57:42.029Z,58.13
2024-01-20T04:00:11.453Z,58.94
2024-01-20T04:02:39.123Z,59.12
2024-01-20T04:05:07.824Z,59.31
2024-01-20T04:07:36.634Z,58.52
2024-01-20T04:10:04.450Z,57.00
2024-01-20T04:12:32.089Z,55.50
2024-01-20T04:14:59.706Z,54.70
2024-01-20T04:17:27.381Z,54.07
2024-01-20T04:19:55.883Z,54.59
2024-01-20T04:22:23.815Z,57.35
2024-01-20T04:24:52.559Z,56.35
2024-01-20T04:27:20.045Z,57.58
2024-01-20T04:29:47.525Z,58.47
2024-01-20T04:32:14.988Z,58.85
2024-01-20T04:34:42.473Z,58.26
2024-01-20T04:37:09.950Z,58.08
2024-01-20T04:39:39.265Z,58.31
2024-01-20T04:42:08.485Z,58.37
2024-01-20T04:44:35.931Z,59.11
2024-01-20T04:47:03.382Z,58.67
2024-01-20T04:49:30.945Z,58.06
2024-01-20T04:52:02.918Z,61.17
2024-01-20T04:54:30.850Z,58.03
2024-01-20T04:56:58.669Z,58.01
2024-01-20T04:59:27.529Z,57.62
2024-01-20T05:01:55.054Z,56.84
2024-01-20T05:04:22.740Z,59.83
2024-01-20T05:06:50.523Z,57.43
2024-01-20T05:09:18.081Z,59.51
2024-01-20T05:11:45.553Z,57.01
2024-01-20T05:14:13.020Z,55.71
2024-01-20T05:16:41.806Z,56.33
2024-01-20T05:19:09.643Z,56.05
2024-01-20T05:21:38.727Z,55.25
2024-01-20T05:24:06.522Z,56.74
2024-01-20T05:26:34.422Z,59.16
2024-01-20T05:29:01.928Z,59.42
2024-01-20T05:31:32.730Z,60.20
2024-01-20T05:34:02.073Z,59.42
2024-01-20T05:36:29.889Z,59.27
2024-01-20T05:38:57.414Z,57.71
2024-01-20T05:41:24.981Z,58.31
2024-01-20T05:43:52.472Z,59.63
2024-01-20T05:46:21.260Z,58.22
2024-01-20T05:48:49.075Z,57.64
2024-01-20T05:51:18.098Z,56.32
2024-01-20T05:53:45.548Z,58.36
2024-01-20T05:56:13.839Z,59.27
2024-01-20T05:58:41.792Z,59.90
2024-01-20T06:01:10.972Z,58.05
2024-01-20T06:03:38.709Z,57.29
2024-01-20T06:06:07.951Z,57.76
2024-01-20T06:08:38.050Z,58.32
2024-01-20T06:11:05.799Z,59.12
2024-01-20T06:13:33.394Z,57.21
2024-01-20T06:16:00.861Z,58.15
2024-01-20T06:18:28.837Z,58.22
2024-01-20T06:20:56.364Z,59.81
2024-01-20T06:23:23.964Z,60.32
2024-01-20T06:25:53.290Z,60.23
2024-01-20T06:28:22.572Z,60.65
2024-01-20T06:30:50.905Z,59.24
2024-01-20T06:33:18.674Z,59.48
2024-01-20T06:35:46.484Z,59.63
2024-01-20T06:38:13.952Z,58.46
2024-01-20T06:40:41.404Z,60.27
2024-01-20T06:43:10.481Z,59.65
2024-01-20T06:45:38.044Z,60.31
2024-01-20T06:48:06.689Z,57.72
2024-01-20T06:50:34.411Z,58.25
2024-01-20T06:53:01.910Z,58.89
2024-01-20T06:55:29.346Z,58.88
2024-01-20T06:57:56.806Z,58.93
2024-01-20T07:00:25.651Z,61.52
2024-01-20T07:02:53.279Z,58.93
2024-01-20T07:05:20.849Z,60.95
2024-01-20T07:07:48.329Z,62.07
2024-01-20T07:10:16.492Z,63.11
2024-01-20T07:12:43.996Z,59.54
2024-01-20T07:15:12.383Z,61.23
2024-01-20T07:17:41.228Z,59.07
2024-01-20T07:20:09.556Z,59.05
2024-01-20T07:22:37.012Z,59.16
2024-01-20T07:25:04.702Z,57.06
2024-01-20T07:27:32.234Z,60.43
2024-01-20T07:29:59.774Z,58.68
2024-01-20T07:32:27.343Z,59.97
2024-01-20T07:34:56.191Z,59.88
2024-01-20T07:37:24.146Z,57.98
2024-01-20T07:39:51.713Z,59.44
2024-01-20T07:42:19.259Z,59.88
2024-01-20T07:44:46.754Z,58.78
2024-01-20T07:47:15.472Z,60.89
2024-01-20T07:49:43.231Z,60.32
2024-01-20T07:52:12.145Z,60.51
2024-01-20T07:54:39.696Z,60.17
2024-01-20T07:57:07.289Z,61.01
2024-01-20T07:59:34.804Z,58.55
2024-01-20T08:02:02.266Z,58.04
2024-01-20T08:04:29.822Z,56.58
2024-01-20T08:06:57.375Z,58.31
2024-01-20T08:09:26.354Z,58.62
2024-01-20T08:11:53.914Z,57.44
2024-01-20T08:14:21.433Z,58.56
2024-01-20T08:16:49.054Z,56.69
2024-01-20T08:19:16.596Z,58.01
2024-01-20T08:21:44.307Z,60.20
2024-01-20T08:24:11.908Z,57.82
2024-01-20T08:26:40.731Z,59.26
2024-01-20T08:29:08.263Z,57.00
2024-01-20T08:31:35.728Z,59.91
2024-01-20T08:34:03.788Z,58.11
2024-01-20T08:36:31.556Z,55.75
2024-01-20T08:38:59.194Z,57.80
2024-01-20T08:41:26.737Z,57.29
2024-01-20T08:43:55.823Z,58.63
2024-01-20T08:46:23.264Z,57.20
2024-01-20T08:48:50.777Z,62.89
2024-01-20T08:51:18.416Z,66.89
2024-01-20T08:53:45.937Z,58.25
2024-01-20T08:56:13.450Z,59.79
2024-01-20T08:58:40.973Z,59.86
2024-01-20T09:01:10.177Z,56.34
2024-01-20T09:03:37.874Z,60.61
2024-01-20T09:06:06.105Z,57.38
2024-01-20T09:08:33.606Z,58.68
2024-01-20T09:11:01.149Z,56.24
2024-01-20T09:13:28.658Z,52.63
2024-01-20T09:15:56.511Z,56.68
2024-01-20T09:18:25.967Z,57.41
2024-01-20T09:20:53.634Z,58.08
2024-01-20T09:23:21.193Z,56.23
2024-01-20T09:25:49.146Z,56.78
2024-01-20T09:28:16.719Z,56.66
2024-01-20T09:30:44.297Z,55.57
2024-01-20T09:33:12.029Z,54.81
2024-01-20T09:35:40.904Z,54.37
2024-01-20T09:38:08.443Z,56.95
2024-01-20T09:40:36.583Z,57.18
2024-01-20T09:43:05.257Z,56.45
2024-01-20T09:45:35.369Z,56.04
2024-01-20T09:48:03.095Z,56.84
2024-01-20T09:50:30.683Z,55.24
2024-01-20T09:53:04.980Z,56.90
2024-01-20T09:55:32.477Z,58.96
2024-01-20T09:58:01.825Z,59.31
2024-01-20T10:00:30.379Z,56.19
2024-01-20T10:02:58.883Z,54.99
2024-01-20T10:05:26.630Z,56.62
2024-01-20T10:07:54.060Z,56.53
2024-01-20T10:10:23.808Z,58.11
2024-01-20T10:12:52.442Z,56.03
2024-01-20T10:15:24.050Z,55.02
2024-01-20T10:17:51.640Z,55.22
2024-01-20T10:20:22.974Z,56.10
2024-01-20T10:22:51.645Z,57.33
2024-01-20T10:25:21.083Z,55.53
2024-01-20T10:27:52.108Z,54.73
2024-01-20T10:30:22.000Z,54.28
2024-01-20T10:33:03.369Z,54.73
2024-01-20T10:35:36.629Z,55.06
2024-01-20T10:38:14.488Z,54.92
2024-01-20T10:40:43.948Z,56.18
2024-01-20T10:43:15.764Z,55.61
2024-01-20T10:45:47.692Z,54.95
2024-01-20T10:48:18.335Z,53.50
2024-01-20T10:50:47.692Z,53.98
2024-01-20T10:53:15.218Z,54.11
2024-01-20T10:55:44.314Z,54.06
2024-01-20T10:58:14.679Z,54.74
2024-01-20T11:00:43.335Z,53.26
2024-01-20T11:03:11.083Z,56.07
2024-01-20T11:05:39.612Z,55.19
2024-01-20T11:08:09.092Z,54.00
2024-01-20T11:10:40.953Z,56.86
2024-01-20T11:13:09.681Z,55.56
2024-01-20T11:15:39.434Z,54.22
2024-01-20T11:18:19.910Z,55.44
2024-01-20T11:21:00.093Z,56.17
2024-01-20T11:23:28.074Z,55.68
2024-01-20T11:25:56.447Z,52.92
2024-01-20T11:28:25.417Z,54.34
2024-01-20T11:30:54.363Z,53.64
2024-01-20T11:33:22.109Z,55.19
2024-01-20T11:35:49.659Z,54.17
2024-01-20T11:38:17.683Z,54.64
2024-01-20T11:40:45.490Z,53.73
2024-01-20T11:43:13.273Z,53.90
2024-01-20T11:45:40.978Z,53.38
2024-01-20T11:48:14.004Z,52.45
2024-01-20T11:50:42.888Z,51.81
2024-01-20T11:53:10.517Z,55.70
2024-01-20T11:55:37.987Z,54.87
2024-01-20T11:58:05.488Z,55.15
2024-01-20T12:00:33.015Z,56.39
2024-01-20T12:03:01.703Z,54.85
2024-01-20T12:05:30.644Z,53.77
2024-01-20T12:07:58.245Z,54.25
2024-01-20T12:10:25.906Z,54.29
2024-01-20T12:12:53.419Z,54.53
2024-01-20T12:15:20.950Z,56.32
2024-01-20T12:17:48.560Z,54.10
2024-01-20T12:20:16.122Z,53.24
2024-01-20T12:22:44.932Z,53.75
2024-01-20T12:25:13.517Z,53.57
2024-01-20T12:27:42.955Z,53.88
2024-01-20T12:30:11.252Z,54.55
2024-01-20T12:32:38.739Z,52.79
2024-01-20T12:35:07.242Z,54.62
2024-01-20T12:37:34.679Z,52.78
2024-01-20T12:40:06.826Z,54.10
2024-01-20T12:42:34.594Z,54.51
2024-01-20T12:45:02.255Z,54.43
2024-01-20T12:47:29.866Z,52.35
2024-01-20T12:49:57.474Z,52.98
2024-01-20T12:52:25.135Z,53.49
2024-01-20T12:54:54.524Z,55.38
2024-01-20T12:57:23.950Z,54.55
2024-01-20T12:59:51.500Z,54.36
2024-01-20T13:02:18.976Z,54.70
2024-01-20T13:04:46.511Z,54.33
2024-01-20T13:07:15.107Z,55.04
2024-01-20T13:09:43.823Z,54.31
2024-01-20T13:12:11.391Z,53.92
2024-01-20T13:14:40.395Z,53.28
2024-01-20T13:17:07.941Z,53.74
2024-01-20T13:19:35.523Z,52.95
2024-01-20T13:22:03.165Z,56.24
2024-01-20T13:24:30.628Z,53.49
2024-01-20T13:26:59.032Z,53.47
2024-01-20T13:29:26.913Z,51.85
2024-01-20T13:31:55.705Z,54.27
2024-01-20T13:34:23.266Z,55.96
2024-01-20T13:36:50.743Z,55.50
2024-01-20T13:39:18.235Z,53.70
2024-01-20T13:41:46.164Z,52.89
2024-01-20T13:44:13.725Z,53.11
2024-01-20T13:46:41.173Z,52.59
2024-01-20T13:49:12.057Z,52.12
2024-01-20T13:51:41.018Z,52.67
2024-01-20T13:54:08.909Z,52.70
2024-01-20T13:56:36.441Z,53.80
2024-01-20T13:59:04.455Z,52.21
2024-01-20T14:01:31.954Z,55.37
2024-01-20T14:04:01.051Z,54.99
2024-01-20T14:06:30.156Z,54.40
2024-01-20T14:08:57.695Z,53.86
2024-01-20T14:11:25.179Z,54.11
2024-01-20T14:13:52.643Z,52.72
2024-01-20T14:16:20.162Z,53.44
2024-01-20T14:18:48.142Z,53.05
2024-01-20T14:21:15.696Z,54.51
2024-01-20T14:23:44.571Z,54.95
2024-01-20T14:26:12.023Z,55.70
2024-01-20T14:28:39.755Z,57.53
2024-01-20T14:31:08.926Z,54.81
2024-01-20T14:33:36.451Z,52.96
2024-01-20T14:36:04.093Z,53.58
2024-01-20T14:38:31.564Z,53.16
2024-01-20T14:41:00.329Z,53.37
2024-01-20T14:43:27.771Z,55.13
2024-01-20T14:45:55.229Z,54.55
2024-01-20T14:48:22.811Z,57.61
2024-01-20T14:50:50.383Z,54.06
2024-01-20T14:53:19.944Z,53.56
2024-01-20T14:55:47.411Z,52.67
2024-01-20T14:58:16.194Z,53.04
2024-01-20T15:00:44.497Z,53.51
2024-01-20T15:03:12.282Z,54.75
2024-01-20T15:05:39.878Z,53.76
2024-01-20T15:08:07.816Z,54.06
2024-01-20T15:10:35.286Z,56.24
2024-01-20T15:13:04.084Z,54.34
2024-01-20T15:15:32.912Z,55.59
2024-01-20T15:18:00.743Z,54.19
2024-01-20T15:20:28.455Z,55.69
2024-01-20T15:22:55.950Z,55.73
2024-01-20T15:25:24.121Z,55.32
2024-01-20T15:27:51.610Z,55.89
2024-01-20T15:30:19.423Z,56.31
2024-01-20T15:32:48.256Z,56.30
2024-01-20T15:35:15.761Z,57.14
2024-01-20T15:37:43.206Z,55.75
2024-01-20T15:40:11.507Z,54.97
2024-01-20T15:42:39.184Z,55.99
2024-01-20T15:45:07.360Z,54.97
2024-01-20T15:47:34.890Z,54.86
2024-01-20T15:50:04.954Z,56.38
2024-01-20T15:52:32.740Z,57.79
2024-01-20T15:55:00.445Z,55.95
2024-01-20T15:57:27.985Z,55.96
2024-01-20T15:59:55.466Z,54.10
2024-01-20T16:02:23.124Z,53.69
2024-01-20T16:04:51.108Z,56.76
2024-01-20T16:07:20.162Z,56.06
2024-01-20T16:09:47.807Z,55.59
2024-01-20T16:12:15.371Z,55.43
2024-01-20T16:14:42.857Z,56.59
2024-01-20T16:17:10.511Z,55.56
2024-01-20T16:19:38.011Z,55.18
2024-01-20T16:22:05.523Z,56.77
2024-01-20T16:24:34.362Z,56.23
2024-01-20T16:27:01.897Z,55.68
2024-01-20T16:29:29.603Z,55.94
2024-01-20T16:31:57.364Z,55.14
2024-01-20T16:34:24.974Z,56.57
2024-01-20T16:36:54.012Z,55.94
2024-01-20T16:39:21.881Z,56.90
2024-01-20T16:41:51.031Z,55.46
2024-01-20T16:44:19.454Z,56.56
2024-01-20T16:46:51.728Z,56.46
2024-01-20T16:49:20.246Z,56.37
2024-01-20T16:51:48.028Z,56.34
2024-01-20T16:54:15.671Z,55.26
2024-01-20T16:56:43.515Z,54.66
2024-01-20T16:59:12.499Z,55.04
2024-01-20T17:01:40.054Z,55.21
2024-01-20T17:04:07.818Z,55.51
2024-01-20T17:06:35.584Z,54.10
2024-01-20T17:09:04.792Z,54.59
2024-01-20T17:11:32.390Z,54.27
2024-01-20T17:14:03.859Z,55.32
2024-01-20T17:16:36.026Z,55.38
2024-01-20T17:19:05.105Z,55.60
2024-01-20T17:21:34.424Z,57.03
2024-01-20T17:24:02.029Z,56.26
2024-01-20T17:26:30.698Z,55.17
2024-01-20T17:29:02.250Z,56.91
2024-01-20T17:31:33.965Z,56.05
2024-01-20T17:34:04.710Z,58.82
2024-01-20T17:36:33.186Z,56.11
2024-01-20T17:39:01.208Z,55.33
2024-01-20T17:41:28.730Z,56.83
2024-01-20T17:43:56.242Z,55.01
2024-01-20T17:46:23.801Z,54.70
2024-01-20T17:48:51.312Z,56.01
2024-01-20T17:51:20.186Z,58.82
2024-01-20T17:53:47.650Z,57.92
2024-01-20T17:56:15.439Z,58.33
2024-01-20T17:58:42.890Z,57.15
2024-01-20T18:01:12.045Z,57.29
2024-01-20T18:03:40.446Z,55.53
2024-01-20T18:06:08.921Z,56.61
2024-01-20T18:08:37.967Z,56.97
2024-01-20T18:11:05.749Z,55.04
2024-01-20T18:13:33.502Z,56.11
2024-01-20T18:16:00.945Z,57.46
2024-01-20T18:18:28.583Z,56.84
2024-01-20T18:20:56.187Z,55.48
2024-01-20T18:23:23.812Z,55.67
2024-01-20T18:25:52.589Z,55.83
2024-01-20T18:28:20.104Z,56.27
2024-01-20T18:30:48.481Z,55.57
2024-01-20T18:33:16.111Z,59.00
2024-01-20T18:35:43.770Z,57.53
2024-01-20T18:38:11.291Z,57.49
2024-01-20T18:40:38.745Z,58.76
2024-01-20T18:43:07.910Z,57.59
2024-01-20T18:45:35.446Z,58.53
2024-01-20T18:48:03.486Z,57.59
2024-01-20T18:50:31.070Z,56.58
2024-01-20T18:52:58.496Z,56.14
2024-01-20T18:55:25.965Z,58.80
2024-01-20T18:57:53.413Z,57.10
2024-01-20T19:00:22.520Z,56.31
2024-01-20T19:02:50.519Z,57.29
2024-01-20T19:05:18.107Z,59.08
2024-01-20T19:07:45.636Z,58.40
2024-01-20T19:10:13.512Z,60.17
2024-01-20T19:12:41.704Z,58.80
2024-01-20T19:15:10.030Z,58.34
2024-01-20T19:17:39.426Z,56.54
2024-01-20T19:20:10.444Z,58.39
2024-01-20T19:22:38.139Z,57.38
2024-01-20T19:25:07.465Z,59.20
2024-01-20T19:27:34.968Z,59.28
2024-01-20T19:30:02.513Z,57.99
2024-01-20T19:32:30.059Z,60.04
2024-01-20T19:34:58.907Z,58.92
2024-01-20T19:37:26.404Z,58.94
2024-01-20T19:39:54.119Z,58.72
2024-01-20T19:42:21.832Z,57.41
2024-01-20T19:44:49.320Z,57.05
2024-01-20T19:47:16.829Z,57.26
2024-01-20T19:49:44.597Z,55.93
2024-01-20T19:52:15.157Z,57.59
2024-01-20T19:54:42.713Z,57.54
2024-01-20T19:57:10.361Z,57.36
2024-01-20T19:59:38.242Z,57.88
2024-01-20T20:02:06.158Z,59.09
2024-01-20T20:04:33.748Z,60.71
2024-01-20T20:07:05.405Z,60.21
2024-01-20T20:09:34.421Z,61.16
2024-01-20T20:12:01.952Z,58.93
2024-01-20T20:14:29.408Z,57.82
2024-01-20T20:16:56.883Z,59.72
2024-01-20T20:19:24.462Z,56.89
2024-01-20T20:21:53.693Z,57.73
2024-01-20T20:24:21.322Z,57.64
2024-01-20T20:26:56.954Z,56.89
2024-01-20T20:29:25.276Z,57.55
2024-01-20T20:31:52.919Z,60.08
2024-01-20T20:34:20.896Z,60.29
2024-01-20T20:36:48.594Z,59.05
2024-01-20T20:39:16.480Z,59.06
2024-01-20T20:41:44.629Z,58.01
2024-01-20T20:44:14.336Z,57.86
2024-01-20T20:46:42.104Z,60.42
2024-01-20T20:49:09.821Z,59.48
2024-01-20T20:51:37.528Z,58.13
2024-01-20T20:54:05.274Z,63.05
2024-01-20T20:56:32.813Z,59.23
2024-01-20T20:59:00.562Z,60.19
2024-01-20T21:01:29.496Z,59.64
2024-01-20T21:03:57.640Z,59.83
2024-01-20T21:06:25.796Z,58.46
2024-01-20T21:08:54.803Z,58.17
2024-01-20T21:11:22.692Z,57.62
2024-01-20T21:13:50.170Z,58.76
2024-01-20T21:16:18.382Z,58.91
2024-01-20T21:18:47.335Z,59.28
2024-01-20T21:21:15.246Z,58.01
2024-01-20T21:23:42.725Z,57.46
2024-01-20T21:26:10.689Z,56.94
2024-01-20T21:28:38.368Z,58.18
2024-01-20T21:31:08.081Z,57.46
2024-01-20T21:33:35.749Z,57.60
2024-01-20T21:36:05.189Z,56.90
2024-01-20T21:38:32.653Z,57.58
2024-01-20T21:41:00.318Z,58.22
2024-01-20T21:43:27.785Z,57.88
2024-01-20T21:45:55.416Z,56.39
2024-01-20T21:48:22.947Z,57.27
2024-01-20T21:50:50.605Z,57.10
2024-01-20T21:53:19.594Z,57.52
2024-01-20T21:55:47.374Z,58.66
2024-01-20T21:58:14.960Z,55.89
2024-01-20T22:00:43.786Z,57.72
2024-01-20T22:03:11.568Z,57.45
2024-01-20T22:05:39.612Z,56.50
2024-01-20T22:08:07.776Z,56.72
2024-01-20T22:10:36.668Z,57.29
2024-01-20T22:13:04.409Z,56.97
2024-01-20T22:15:31.989Z,56.79
2024-01-20T22:17:59.681Z,56.14
2024-01-20T22:20:27.292Z,56.18
2024-01-20T22:22:54.789Z,55.55
2024-01-20T22:25:22.259Z,55.94
2024-01-20T22:27:51.137Z,55.53
2024-01-20T22:30:18.842Z,55.10
2024-01-20T22:32:47.122Z,55.55
2024-01-20T22:35:14.608Z,55.88
2024-01-20T22:37:42.083Z,56.40
2024-01-20T22:40:11.207Z,55.11
2024-01-20T22:42:38.760Z,55.14
2024-01-20T22:45:11.083Z,54.67
2024-01-20T22:47:40.329Z,55.11
2024-01-20T22:50:08.394Z,55.04
2024-01-20T22:52:35.941Z,55.16
2024-01-20T22:55:03.663Z,54.78
2024-01-20T22:57:31.373Z,54.47
2024-01-20T22:59:58.885Z,54.77
2024-01-20T23:02:27.700Z,54.11
2024-01-20T23:04:56.033Z,53.73
2024-01-20T23:07:23.941Z,54.81
2024-01-20T23:09:51.523Z,56.24
2024-01-20T23:12:20.720Z,54.00
2024-01-20T23:14:48.564Z,54.83
2024-01-20T23:17:17.451Z,54.63
2024-01-20T23:19:46.259Z,54.12
2024-01-20T23:22:13.739Z,53.65
2024-01-20T23:24:43.210Z,53.64
2024-01-20T23:27:10.916Z,54.49
2024-01-20T23:29:38.430Z,53.79
2024-01-20T23:32:06.109Z,54.12
2024-01-20T23:34:34.168Z,53.43
2024-01-20T23:37:02.936Z,53.17
2024-01-20T23:39:30.470Z,52.72
2024-01-20T23:41:58.078Z,52.90
2024-01-20T23:44:25.661Z,52.37
2024-01-20T23:46:55.446Z,52.49
2024-01-20T23:49:22.985Z,53.52
2024-01-20T23:51:50.639Z,53.50
2024-01-20T23:54:19.887Z,52.70
2024-01-20T23:56:47.833Z,53.26
2024-01-20T23:59:15.444Z,52.78
